Aérodrome :
LOGIN :

S'inscrire | Disclaimer

   EN    FR    IT 

 










Légende :    VFR   VFR Marginal   IFR   IFR Intensif   IFR Très Intensif
Visi : 
Plafond : 
>= 8 km
>= 3000ft
5 à 8 km
1000 à 3000 ft
1500m à 5 km
500 à 1000 ft
800 à 1500m
200 à 500 ft
< 800m
< 200 ft
Symboles :   Orages  Brouillard  Fortes neiges  Fortes précipitations  Vent > 20 kt
SIGMETs :   Divers  Orages  Givrage  Turbulence  Onde Orograph.  Cendres Volcan.







- Altitude de l'aérodrome : 659 ft
- Code IATA : LYN
- Voir les cartes d'approche


LFLY - Lyon Bron

DERNIER METAR :
  • 191330Z AUTO 15007KT 110V200 9999 FEW043 SCT052 BKN064 10/03 Q1016 BECMG 32013KT

METARs EXPIRÉS :
  • 191300Z AUTO 14006KT 110V170 9999 SCT046 SCT052 10/03 Q1016 TEMPO SCT030TCU
  • 191230Z AUTO 15005KT 9999 SCT052 BKN066 09/03 Q1016 TEMPO SCT030TCU
  • 191200Z AUTO 20005KT 9999 BKN045 BKN052 09/03 Q1017 TEMPO SCT030TCU
  • 191130Z AUTO 19005KT 9999 FEW036 BKN048 BKN088 10/03 Q1017 TEMPO SCT030TCU
  • 191100Z AUTO 21003KT 9999 FEW042 SCT050 OVC066 08/03 Q1017 BECMG FEW030TCU BKN040

TAF TAF LFLY
Valide du 19 à 12h jusqu'au 20 à 12h UTC


191100Z 1912/2012 VRB03KT 9999 SCT030 BKN050
TEMPO 1912/1914 15012KT -SHRA SCT030TCU
BECMG 1915/1917 32013KT
TEMPO 1917/1922 -SHRA SCT030TCU
BECMG 1922/1924 CAVOK
BECMG 2002/2004 18012KT
BECMG 2008/2010 -RA OVC020
TEMPO 2010/2012 18015G28KT
PROB40
TEMPO 2010/2012 3500 RASN OVC010
ATIS : +33 4 72 15 87 96
Pas de NOTAMs connus pour ce terrain.
2 SIGMETs publiés pour la FIR Marseille (LFMM) :
 
Turbulence forte
LFMM SIGMET 6 VALID 191100/191500 LFPW
LFMM MARSEILLE FIR/UIR SEV TURB FCST WI N4330 E00900 - N4315 E00945 - N4245 E00945 - N4230 E00800 - N4315 E00715 - N4330 E00900 SFC/FL040 STNR NC=
Onde orographique forte
LFMM SIGMET 5 VALID 191100/191500 LFPW
LFMM MARSEILLE FIR/UIR SEV MTW FCST E OF E00900 SFC/FL250 STNR NC=



MET'MAP, la Météo Aéronautique d'un coup d'oeil ! - Copyright ORBIFLY Décembre 2007 - Disclaimer

ORBIFLY MET'MAP TEAM :

Programmation & Développement : Alexandra Zaïnal
Conception & Développement : Baudouin d'Aumeries
Co-Programmation & Développement : Marc-Olivier Méhu
Soutien technique & logistique : Manuel Goepfert

Contact : metmap@orbifly.com




SOURCES & CREDITS :

   NOAA